createdAt,value
2019-03-22T00:04:47.346Z,22.17
2019-03-22T00:10:15.139Z,20.87
2019-03-22T00:15:21.752Z,21.43
2019-03-22T00:20:49.682Z,21.10
2019-03-22T00:25:56.471Z,20.30
2019-03-22T00:31:03.114Z,21.47
2019-03-22T00:36:09.658Z,20.47
2019-03-22T00:41:16.048Z,20.17
2019-03-22T00:46:22.916Z,20.63
2019-03-22T00:51:29.557Z,19.90
2019-03-22T00:56:35.296Z,19.43
2019-03-22T01:01:41.290Z,19.53
2019-03-22T01:07:09.499Z,21.10
2019-03-22T01:12:16.296Z,22.17
2019-03-22T01:17:22.669Z,20.43
2019-03-22T01:22:29.095Z,20.17
2019-03-22T01:27:40.630Z,20.33
2019-03-22T01:32:45.817Z,20.47
2019-03-22T01:37:52.688Z,21.00
2019-03-22T01:42:59.541Z,22.60
2019-03-22T01:48:06.335Z,21.10
2019-03-22T01:53:13.428Z,20.23
2019-03-22T02:04:32.778Z,19.77
2019-03-22T02:09:39.585Z,19.87
2019-03-22T02:14:46.027Z,20.03
2019-03-22T02:19:52.487Z,19.37
2019-03-22T02:24:58.995Z,20.17
2019-03-22T02:30:27.058Z,21.13
2019-03-22T02:35:33.012Z,20.20
2019-03-22T02:40:40.127Z,20.50
2019-03-22T02:45:46.572Z,19.90
2019-03-22T02:50:56.162Z,19.47
2019-03-22T02:56:02.933Z,20.27
2019-03-22T03:01:09.545Z,20.80
2019-03-22T03:06:15.910Z,21.13
2019-03-22T03:11:22.519Z,20.43
2019-03-22T03:16:30.484Z,20.60
2019-03-22T03:21:36.468Z,21.83
2019-03-22T03:26:43.241Z,22.30
2019-03-22T03:31:50.762Z,20.57
2019-03-22T03:37:19.728Z,21.23
2019-03-22T03:42:28.526Z,21.27
2019-03-22T03:47:34.492Z,20.13
2019-03-22T03:52:41.386Z,20.40
2019-03-22T03:57:48.166Z,21.33
2019-03-22T04:02:55.027Z,20.93
2019-03-22T04:08:01.798Z,21.03
2019-03-22T04:13:08.230Z,21.27
2019-03-22T04:18:14.942Z,20.10
2019-03-22T04:23:21.419Z,20.50
2019-03-22T04:28:27.799Z,20.90
2019-03-22T04:33:33.768Z,19.80
2019-03-22T04:38:40.507Z,21.53
2019-03-22T04:43:47.426Z,21.77
2019-03-22T04:48:55.563Z,21.90
2019-03-22T04:54:04.967Z,22.93
2019-03-22T04:59:19.217Z,21.47
2019-03-22T05:04:46.913Z,20.13
2019-03-22T05:09:55.313Z,20.63
2019-03-22T05:15:02.573Z,20.63
2019-03-22T05:20:11.194Z,21.60
2019-03-22T05:25:20.850Z,21.97
2019-03-22T05:31:14.070Z,22.70
2019-03-22T05:36:22.989Z,21.60
2019-03-22T05:41:51.231Z,21.80
2019-03-22T05:46:58.032Z,21.77
2019-03-22T05:52:04.887Z,23.07
2019-03-22T05:57:13.736Z,23.77
2019-03-22T06:02:21.332Z,23.90
2019-03-22T06:07:28.209Z,25.77
2019-03-22T06:12:34.105Z,25.77
2019-03-22T06:17:51.228Z,26.57
2019-03-22T06:22:48.591Z,26.73
2019-03-22T06:27:57.521Z,28.23
2019-03-22T06:33:04.609Z,29.37
2019-03-22T06:38:11.735Z,27.77
2019-03-22T06:43:18.896Z,27.97
2019-03-22T06:48:25.736Z,26.30
2019-03-22T06:53:31.902Z,28.47
2019-03-22T06:58:38.032Z,25.70
2019-03-22T07:03:45.591Z,24.43
2019-03-22T07:08:52.624Z,24.63
2019-03-22T07:13:59.772Z,21.87
2019-03-22T07:19:06.881Z,23.83
2019-03-22T07:24:13.561Z,23.53
2019-03-22T07:29:20.216Z,23.03
2019-03-22T07:34:48.377Z,22.07
2019-03-22T07:39:55.911Z,22.90
2019-03-22T07:45:02.643Z,21.67
2019-03-22T07:50:12.249Z,20.67
2019-03-22T07:55:18.905Z,20.37
2019-03-22T08:00:30.799Z,19.90
2019-03-22T08:05:33.380Z,19.33
2019-03-22T08:10:41.520Z,19.40
2019-03-22T08:16:13.123Z,18.53
2019-03-22T08:21:21.323Z,18.27
2019-03-22T08:26:29.381Z,18.90
2019-03-22T08:31:35.569Z,18.13
2019-03-22T08:36:42.823Z,19.57
2019-03-22T08:41:50.216Z,21.77
2019-03-22T08:46:57.525Z,20.53
2019-03-22T08:52:04.633Z,22.27
2019-03-22T08:57:11.744Z,21.10
2019-03-22T09:02:18.934Z,22.33
2019-03-22T09:07:26.235Z,22.37
2019-03-22T09:12:32.613Z,23.73
2019-03-22T09:17:39.790Z,23.97
2019-03-22T09:22:46.781Z,23.37
2019-03-22T09:27:55.390Z,23.13
2019-03-22T09:33:02.638Z,23.23
2019-03-22T09:38:13.111Z,21.63
2019-03-22T09:43:19.670Z,21.47
2019-03-22T09:48:26.528Z,20.67
2019-03-22T09:53:32.706Z,23.17
2019-03-22T09:58:39.015Z,22.10
2019-03-22T10:03:46.323Z,21.73
2019-03-22T10:08:53.253Z,22.67
2019-03-22T10:14:00.589Z,23.57
2019-03-22T10:19:07.632Z,25.60
2019-03-22T10:24:14.337Z,26.30
2019-03-22T10:29:21.520Z,25.47
2019-03-22T10:34:29.274Z,25.53
2019-03-22T10:39:35.617Z,27.23
2019-03-22T10:44:42.458Z,26.20
2019-03-22T10:49:49.389Z,25.43
2019-03-22T10:54:56.229Z,24.60
2019-03-22T11:00:02.884Z,25.53
2019-03-22T11:05:11.396Z,25.33
2019-03-22T11:10:19.506Z,26.93
2019-03-22T11:15:27.671Z,25.93
2019-03-22T11:20:33.817Z,26.47
2019-03-22T11:25:39.961Z,24.83
2019-03-22T11:30:47.034Z,26.37
2019-03-22T11:35:55.122Z,27.40
2019-03-22T11:41:02.140Z,25.57
2019-03-22T11:46:09.547Z,26.03
2019-03-22T11:51:16.865Z,26.10
2019-03-22T11:56:24.149Z,25.13
2019-03-22T12:01:30.416Z,25.37
2019-03-22T12:06:38.562Z,25.27
2019-03-22T12:11:45.465Z,26.13
2019-03-22T12:16:52.280Z,24.97
2019-03-22T12:21:58.933Z,22.40
2019-03-22T12:27:05.871Z,21.40
2019-03-22T12:32:12.679Z,22.57
2019-03-22T12:37:20.780Z,22.50
2019-03-22T12:42:27.923Z,22.00
2019-03-22T12:47:34.195Z,21.50
2019-03-22T12:52:41.343Z,20.30
2019-03-22T12:57:48.426Z,20.63
2019-03-22T13:02:56.201Z,20.30
2019-03-22T13:08:03.225Z,19.70
2019-03-22T13:13:10.389Z,21.37
2019-03-22T13:18:17.357Z,20.23
2019-03-22T13:23:25.393Z,20.37
2019-03-22T13:28:31.582Z,19.93
2019-03-22T13:33:40.514Z,18.80
2019-03-22T13:38:47.351Z,18.63
2019-03-22T13:43:54.032Z,18.03
2019-03-22T13:49:00.939Z,17.77
2019-03-22T13:54:08.180Z,17.43
2019-03-22T13:59:15.412Z,17.40
2019-03-22T14:04:22.509Z,17.30
2019-03-22T14:09:29.944Z,17.83
2019-03-22T14:14:36.068Z,17.00
2019-03-22T14:19:42.697Z,16.37
2019-03-22T14:24:49.366Z,16.77
2019-03-22T14:29:56.005Z,17.57
2019-03-22T14:35:05.107Z,25.90
2019-03-22T14:40:15.695Z,22.90
2019-03-22T14:45:21.684Z,17.33
2019-03-22T14:50:28.696Z,17.90
2019-03-22T14:55:34.859Z,19.53
2019-03-22T15:00:42.911Z,18.10
2019-03-22T15:05:49.969Z,19.50
2019-03-22T15:10:56.954Z,18.83
2019-03-22T15:16:05.591Z,18.00
2019-03-22T15:21:29.566Z,19.03
2019-03-22T15:26:46.524Z,22.17
2019-03-22T15:31:57.679Z,20.27
2019-03-22T15:37:23.086Z,19.87
2019-03-22T15:42:30.327Z,20.77
2019-03-22T15:47:37.981Z,21.60
2019-03-22T15:52:44.697Z,21.90
2019-03-22T15:57:51.462Z,19.53
2019-03-22T16:02:58.137Z,21.20
2019-03-22T16:08:05.377Z,20.97
2019-03-22T16:13:12.499Z,20.23
2019-03-22T16:18:20.378Z,20.37
2019-03-22T16:23:27.691Z,20.37
2019-03-22T16:28:33.835Z,19.37
2019-03-22T16:33:40.789Z,20.27
2019-03-22T16:38:48.191Z,19.90
2019-03-22T16:43:55.307Z,21.27
2019-03-22T16:49:02.476Z,20.67
2019-03-22T16:54:09.950Z,23.23
2019-03-22T16:59:16.638Z,23.03
2019-03-22T17:04:23.270Z,25.83
2019-03-22T17:09:30.603Z,24.33
2019-03-22T17:14:37.779Z,21.90
2019-03-22T17:19:45.066Z,22.23
2019-03-22T17:24:52.138Z,23.30
2019-03-22T17:29:59.158Z,23.07
2019-03-22T17:35:09.115Z,19.10
2019-03-22T17:40:16.926Z,18.17
2019-03-22T17:45:23.938Z,17.47
2019-03-22T17:50:30.377Z,17.27
2019-03-22T17:55:36.859Z,17.80
2019-03-22T18:00:44.238Z,17.30
2019-03-22T18:05:51.467Z,18.87
2019-03-22T18:10:59.826Z,17.33
2019-03-22T18:16:07.452Z,15.67
2019-03-22T18:21:15.024Z,17.23
2019-03-22T18:26:22.271Z,15.53
2019-03-22T18:31:29.474Z,15.53
2019-03-22T18:36:35.621Z,16.37
2019-03-22T18:41:41.649Z,14.13
2019-03-22T18:46:48.369Z,16.07
2019-03-22T18:51:54.955Z,15.10
2019-03-22T18:57:01.488Z,15.57
2019-03-22T19:02:09.042Z,16.83
2019-03-22T19:07:16.195Z,15.90
2019-03-22T19:12:35.950Z,17.60
2019-03-22T19:17:44.930Z,16.87
2019-03-22T19:22:54.249Z,14.80
2019-03-22T19:28:01.616Z,15.73
2019-03-22T19:33:08.183Z,16.07
2019-03-22T19:38:14.766Z,15.17
2019-03-22T19:43:22.813Z,15.07
2019-03-22T19:48:29.831Z,12.57
2019-03-22T19:53:35.804Z,12.33
2019-03-22T19:58:43.673Z,11.10
2019-03-22T20:03:50.504Z,11.33
2019-03-22T20:08:57.718Z,10.83
2019-03-22T20:14:05.013Z,11.03
2019-03-22T20:19:12.034Z,10.07
2019-03-22T20:24:19.572Z,10.83
2019-03-22T20:29:26.667Z,11.47
2019-03-22T20:34:32.933Z,11.57
2019-03-22T20:39:39.999Z,11.90
2019-03-22T20:44:46.774Z,11.27
2019-03-22T20:49:54.770Z,12.43
2019-03-22T20:55:01.791Z,12.00
2019-03-22T21:00:17.459Z,13.00
2019-03-22T21:05:27.101Z,13.87
2019-03-22T21:10:33.878Z,14.50
2019-03-22T21:15:40.649Z,14.83
2019-03-22T21:20:47.249Z,15.90
2019-03-22T21:25:54.123Z,15.20
2019-03-22T21:31:02.042Z,14.90
2019-03-22T21:36:08.918Z,14.27
2019-03-22T21:41:15.474Z,16.53
2019-03-22T21:46:22.413Z,17.00
2019-03-22T21:51:29.282Z,24.37
2019-03-22T21:56:35.275Z,27.67
2019-03-22T22:01:42.212Z,29.10
2019-03-22T22:06:48.847Z,22.87
2019-03-22T22:11:55.724Z,19.47
2019-03-22T22:17:02.644Z,18.93
2019-03-22T22:22:09.736Z,19.23
2019-03-22T22:27:16.247Z,19.17
2019-03-22T22:32:23.406Z,20.97
2019-03-22T22:37:30.015Z,21.87
2019-03-22T22:42:36.131Z,21.37
2019-03-22T22:47:43.704Z,19.50
2019-03-22T22:52:50.473Z,20.27
2019-03-22T22:57:57.177Z,21.47
2019-03-22T23:03:24.906Z,21.17
2019-03-22T23:08:30.920Z,21.07
2019-03-22T23:13:36.919Z,21.60
2019-03-22T23:18:43.499Z,23.93
2019-03-22T23:23:49.991Z,23.87
2019-03-22T23:28:56.608Z,25.30
2019-03-22T23:34:03.106Z,24.50
2019-03-22T23:39:09.693Z,26.97
2019-03-22T23:44:16.431Z,26.83
2019-03-22T23:49:23.343Z,26.00
2019-03-22T23:54:30.274Z,25.60
2019-03-22T23:59:39.595Z,25.47
